createdAt,value
2022-11-24T00:00:38.433Z,20.55
2022-11-24T00:01:41.019Z,22.20
2022-11-24T00:02:43.726Z,22.25
2022-11-24T00:03:53.801Z,23.73
2022-11-24T00:04:56.348Z,23.80
2022-11-24T00:06:05.466Z,20.42
2022-11-24T00:07:08.071Z,18.58
2022-11-24T00:08:11.800Z,18.50
2022-11-24T00:09:14.364Z,26.73
2022-11-24T00:10:17.016Z,25.48
2022-11-24T00:11:23.342Z,22.77
2022-11-24T00:12:25.843Z,24.52
2022-11-24T00:13:28.408Z,29.58
2022-11-24T00:14:31.050Z,29.55
2022-11-24T00:15:33.775Z,27.60
2022-11-24T00:16:38.209Z,24.48
2022-11-24T00:17:40.772Z,23.17
2022-11-24T00:18:45.708Z,20.55
2022-11-24T00:19:48.263Z,25.30
2022-11-24T00:20:53.747Z,27.02
2022-11-24T00:21:56.323Z,22.60
2022-11-24T00:22:58.862Z,22.42
2022-11-24T00:24:01.771Z,29.00
2022-11-24T00:25:04.914Z,35.65
2022-11-24T00:26:19.561Z,30.85
2022-11-24T00:27:22.165Z,29.60
2022-11-24T00:28:24.817Z,24.02
2022-11-24T00:29:27.480Z,23.27
2022-11-24T00:30:30.137Z,25.00
2022-11-24T00:31:41.390Z,22.58
2022-11-24T00:32:43.986Z,27.25
2022-11-24T00:33:48.713Z,20.42
2022-11-24T00:34:51.208Z,17.35
2022-11-24T00:35:59.012Z,18.27
2022-11-24T00:37:01.537Z,19.40
2022-11-24T00:38:04.109Z,20.35
2022-11-24T00:39:11.414Z,17.40
2022-11-24T00:40:13.969Z,18.45
2022-11-24T00:41:16.504Z,16.02
2022-11-24T00:42:19.003Z,15.80
2022-11-24T00:43:21.560Z,17.30
2022-11-24T00:44:24.105Z,17.58
2022-11-24T00:45:26.669Z,16.13
2022-11-24T00:46:29.805Z,16.13
2022-11-24T00:47:32.995Z,16.30
2022-11-24T00:48:35.776Z,16.25
2022-11-24T00:49:38.395Z,20.98
2022-11-24T00:50:40.920Z,19.35
2022-11-24T00:51:43.541Z,21.98
2022-11-24T00:52:46.028Z,20.75
2022-11-24T00:53:48.828Z,19.50
2022-11-24T00:54:51.358Z,20.38
2022-11-24T00:55:55.265Z,18.88
2022-11-24T00:56:57.790Z,19.25
2022-11-24T00:58:00.349Z,22.73
2022-11-24T00:59:02.922Z,15.90
2022-11-24T01:00:06.257Z,18.30
2022-11-24T01:01:24.846Z,16.75
2022-11-24T01:02:27.517Z,14.10
2022-11-24T01:03:30.349Z,17.67
2022-11-24T01:04:33.158Z,16.20
2022-11-24T01:05:39.870Z,18.20
2022-11-24T01:06:42.425Z,17.75
2022-11-24T01:07:45.071Z,16.85
2022-11-24T01:08:48.674Z,15.23
2022-11-24T01:09:51.132Z,15.40
2022-11-24T01:10:53.697Z,15.82
2022-11-24T01:12:02.008Z,17.25
2022-11-24T01:13:05.271Z,19.02
2022-11-24T01:14:07.771Z,16.55
2022-11-24T01:15:10.345Z,16.85
2022-11-24T01:16:28.676Z,16.77
2022-11-24T01:17:31.242Z,15.00
2022-11-24T01:18:33.992Z,20.05
2022-11-24T01:19:36.558Z,17.85
2022-11-24T01:20:39.130Z,18.75
2022-11-24T01:21:41.665Z,15.20
2022-11-24T01:22:44.289Z,17.00
2022-11-24T01:23:47.139Z,17.02
2022-11-24T01:24:49.673Z,18.55
2022-11-24T01:25:52.233Z,17.67
2022-11-24T01:26:54.782Z,23.88
2022-11-24T01:27:57.346Z,16.08
2022-11-24T01:28:59.915Z,18.13
2022-11-24T01:30:02.812Z,16.60
2022-11-24T01:31:07.532Z,17.02
2022-11-24T01:32:10.112Z,15.57
2022-11-24T01:33:12.636Z,15.40
2022-11-24T01:34:15.259Z,16.15
2022-11-24T01:35:17.820Z,16.83
2022-11-24T01:36:21.910Z,18.65
2022-11-24T01:37:24.422Z,20.70
2022-11-24T01:38:27.607Z,17.15
2022-11-24T01:39:30.185Z,23.58
2022-11-24T01:40:32.697Z,16.83
2022-11-24T01:41:35.787Z,16.73
2022-11-24T01:42:51.008Z,15.27
2022-11-24T01:43:55.340Z,16.92
2022-11-24T01:45:40.942Z,17.98
2022-11-24T01:46:48.145Z,15.73
2022-11-24T01:47:50.742Z,16.23
2022-11-24T01:49:08.836Z,16.75
2022-11-24T01:50:16.758Z,20.00
2022-11-24T01:51:25.841Z,17.70
2022-11-24T01:52:38.098Z,17.02
2022-11-24T01:53:44.441Z,16.23
2022-11-24T01:54:55.686Z,18.90
2022-11-24T01:55:59.163Z,17.67
2022-11-24T01:57:15.217Z,16.98
2022-11-24T01:58:24.710Z,19.77
2022-11-24T01:59:27.471Z,16.90
2022-11-24T02:00:30.001Z,18.70
2022-11-24T02:01:33.143Z,16.65
2022-11-24T02:02:36.091Z,17.95
2022-11-24T02:03:43.409Z,16.60
2022-11-24T02:04:46.844Z,15.52
2022-11-24T02:06:04.263Z,20.35
2022-11-24T02:07:08.387Z,15.23
2022-11-24T02:08:28.599Z,14.45
2022-11-24T02:09:43.681Z,17.17
2022-11-24T02:10:47.492Z,16.13
2022-11-24T02:11:50.667Z,16.75
2022-11-24T02:12:56.301Z,15.55
2022-11-24T02:13:59.088Z,19.27
2022-11-24T02:15:02.211Z,19.80
2022-11-24T02:16:07.800Z,16.85
2022-11-24T02:17:10.682Z,19.00
2022-11-24T02:18:13.281Z,15.77
2022-11-24T02:19:35.968Z,13.70
2022-11-24T02:20:38.764Z,16.73
2022-11-24T02:21:41.336Z,19.45
2022-11-24T02:23:24.810Z,15.25
2022-11-24T02:24:51.362Z,18.65
2022-11-24T02:26:25.437Z,17.60
2022-11-24T02:27:28.012Z,16.52
2022-11-24T02:28:31.658Z,16.60
2022-11-24T02:29:34.404Z,16.00
2022-11-24T02:30:37.047Z,18.75
2022-11-24T02:31:46.939Z,15.70
2022-11-24T02:32:50.160Z,16.13
2022-11-24T02:33:52.711Z,18.40
2022-11-24T02:35:07.619Z,17.15
2022-11-24T02:36:10.153Z,18.45
2022-11-24T02:37:12.710Z,17.60
2022-11-24T02:38:15.366Z,20.63
2022-11-24T02:39:18.015Z,13.23
2022-11-24T02:40:25.662Z,17.85
2022-11-24T02:41:29.182Z,15.93
2022-11-24T02:42:37.588Z,17.95
2022-11-24T02:43:46.734Z,16.42
2022-11-24T02:44:54.149Z,15.85
2022-11-24T02:45:56.802Z,15.10
2022-11-24T02:47:07.082Z,15.70
2022-11-24T02:48:09.661Z,17.20
2022-11-24T02:49:12.194Z,19.10
2022-11-24T02:50:14.832Z,17.20
2022-11-24T02:51:17.857Z,15.32
2022-11-24T02:52:20.603Z,17.75
2022-11-24T02:53:23.218Z,14.15
2022-11-24T02:54:25.951Z,16.83
2022-11-24T02:55:28.489Z,17.77
2022-11-24T02:56:31.064Z,19.10
2022-11-24T02:57:33.735Z,15.73
2022-11-24T02:58:36.296Z,15.82
2022-11-24T02:59:39.180Z,17.13
2022-11-24T03:00:41.822Z,14.90
2022-11-24T03:01:44.436Z,13.70
2022-11-24T03:02:47.359Z,14.65
2022-11-24T03:03:50.001Z,15.25
2022-11-24T03:04:52.591Z,12.82
2022-11-24T03:05:55.160Z,13.02
2022-11-24T03:06:58.344Z,15.45
2022-11-24T03:08:00.956Z,12.48
2022-11-24T03:09:03.896Z,12.98
2022-11-24T03:10:06.921Z,13.07
2022-11-24T03:11:09.451Z,11.48
2022-11-24T03:12:11.968Z,12.32
2022-11-24T03:13:14.628Z,11.35
2022-11-24T03:14:17.219Z,11.23
2022-11-24T03:15:19.761Z,10.93
2022-11-24T03:16:22.438Z,12.75
2022-11-24T03:17:25.014Z,11.88
2022-11-24T03:18:27.518Z,9.40
2022-11-24T03:19:30.048Z,13.13
2022-11-24T03:20:32.693Z,14.15
2022-11-24T03:21:36.973Z,13.00
2022-11-24T03:22:39.536Z,11.60
2022-11-24T03:23:42.148Z,10.68
2022-11-24T03:24:44.730Z,13.60
2022-11-24T03:25:47.274Z,10.90
2022-11-24T03:26:49.823Z,10.20
2022-11-24T03:27:52.846Z,10.07
2022-11-24T03:28:57.204Z,12.85
2022-11-24T03:29:59.764Z,13.10
2022-11-24T03:31:02.996Z,11.45
2022-11-24T03:32:05.967Z,12.93
2022-11-24T03:33:36.702Z,14.00
2022-11-24T03:34:39.229Z,16.45
2022-11-24T03:35:43.985Z,17.20
2022-11-24T03:36:46.640Z,12.10
2022-11-24T03:37:49.502Z,11.30
2022-11-24T03:38:52.161Z,13.70
2022-11-24T03:39:54.799Z,14.15
2022-11-24T03:40:57.331Z,13.18
2022-11-24T03:41:59.873Z,10.98
2022-11-24T03:43:02.600Z,12.40
2022-11-24T03:44:05.277Z,12.07
2022-11-24T03:46:31.053Z,11.50
2022-11-24T03:47:33.625Z,14.98
2022-11-24T03:48:36.228Z,18.02
2022-11-24T03:49:39.189Z,15.23
2022-11-24T03:50:41.875Z,18.33
2022-11-24T03:51:44.482Z,17.02
2022-11-24T03:52:47.014Z,21.27
2022-11-24T03:53:49.520Z,21.02
2022-11-24T03:55:43.203Z,19.48
2022-11-24T03:56:45.755Z,18.30
2022-11-24T03:57:48.315Z,22.05
2022-11-24T03:58:50.833Z,21.25
2022-11-24T04:00:43.684Z,24.05
2022-11-24T04:01:46.289Z,19.48
2022-11-24T04:02:48.875Z,20.40
2022-11-24T04:03:51.475Z,18.15
2022-11-24T04:04:54.057Z,21.60
2022-11-24T04:05:56.604Z,21.33
2022-11-24T04:06:59.192Z,17.20
2022-11-24T04:08:03.733Z,21.48
2022-11-24T04:09:06.538Z,21.15
2022-11-24T04:10:09.259Z,22.20
2022-11-24T04:11:31.773Z,19.05
2022-11-24T04:12:46.581Z,20.27
2022-11-24T04:13:49.151Z,20.23
2022-11-24T04:14:51.705Z,15.45
2022-11-24T04:15:54.489Z,18.65
2022-11-24T04:16:57.155Z,21.77
2022-11-24T04:17:59.659Z,20.63
2022-11-24T04:19:02.290Z,18.95
2022-11-24T04:20:05.794Z,24.27
2022-11-24T04:21:08.343Z,21.95
2022-11-24T04:22:10.926Z,20.50
2022-11-24T04:23:13.446Z,18.33
2022-11-24T04:24:15.949Z,22.90
2022-11-24T04:25:18.779Z,21.08
2022-11-24T04:26:21.396Z,19.88
2022-11-24T04:27:23.974Z,18.05
2022-11-24T04:28:26.565Z,22.65
2022-11-24T04:29:29.113Z,23.25
2022-11-24T04:30:32.078Z,19.95
2022-11-24T04:31:34.678Z,18.52
2022-11-24T04:32:37.370Z,16.38
2022-11-24T04:33:39.931Z,14.48
2022-11-24T04:34:42.462Z,15.60
2022-11-24T04:35:45.020Z,16.13
2022-11-24T04:36:47.562Z,16.13
2022-11-24T04:37:50.301Z,16.00
2022-11-24T04:39:24.291Z,15.13
2022-11-24T04:40:17.229Z,16.73
2022-11-24T04:41:20.185Z,12.82
2022-11-24T04:45:47.356Z,14.00
2022-11-24T04:46:50.020Z,16.98
2022-11-24T04:47:52.611Z,16.73
2022-11-24T04:48:55.134Z,15.65
2022-11-24T04:49:57.924Z,16.52
2022-11-24T04:51:05.555Z,20.70
2022-11-24T04:52:08.063Z,16.40
2022-11-24T04:53:11.647Z,19.73
2022-11-24T04:54:14.983Z,21.27
2022-11-24T04:55:17.763Z,19.15
2022-11-24T04:56:20.322Z,18.90
2022-11-24T04:57:26.337Z,22.33
2022-11-24T04:58:28.850Z,17.98
2022-11-24T04:59:31.436Z,17.25
2022-11-24T05:00:33.986Z,20.20
2022-11-24T05:01:36.566Z,18.98
2022-11-24T05:02:39.340Z,16.75
2022-11-24T05:03:41.855Z,18.15
2022-11-24T05:04:45.001Z,15.77
2022-11-24T05:05:47.634Z,17.25
2022-11-24T05:06:50.397Z,15.55
2022-11-24T05:08:20.721Z,18.83
2022-11-24T05:09:32.527Z,15.52
2022-11-24T05:10:44.528Z,14.35
2022-11-24T05:11:47.110Z,19.27
2022-11-24T05:12:57.492Z,15.35
2022-11-24T05:14:00.854Z,13.65
2022-11-24T05:15:05.412Z,13.90
2022-11-24T05:16:08.298Z,12.43
2022-11-24T05:17:10.873Z,13.93
2022-11-24T05:18:16.357Z,14.18
2022-11-24T05:19:18.895Z,15.85
2022-11-24T05:20:21.635Z,15.35
2022-11-24T05:21:24.162Z,12.75
2022-11-24T05:22:29.600Z,14.40
2022-11-24T05:23:32.333Z,13.18
2022-11-24T05:24:35.060Z,15.88
2022-11-24T05:25:37.974Z,12.57
2022-11-24T05:26:40.661Z,10.18
2022-11-24T05:27:43.380Z,11.48
2022-11-24T05:28:45.869Z,13.98
2022-11-24T05:29:48.480Z,13.45
2022-11-24T05:30:51.066Z,13.13
2022-11-24T05:31:53.562Z,12.10
2022-11-24T05:32:56.179Z,11.70
2022-11-24T05:33:58.725Z,14.23
2022-11-24T05:35:02.309Z,16.58
2022-11-24T05:36:06.957Z,17.80
2022-11-24T05:37:09.556Z,19.05
2022-11-24T05:38:12.134Z,16.83
2022-11-24T05:39:14.699Z,15.55
2022-11-24T05:40:17.479Z,16.00
2022-11-24T05:41:19.992Z,15.90
2022-11-24T05:42:46.141Z,16.35
2022-11-24T05:43:49.541Z,15.73
2022-11-24T05:44:53.357Z,12.65
2022-11-24T05:46:00.447Z,14.63
2022-11-24T05:47:03.041Z,17.52
2022-11-24T05:48:14.358Z,17.73
2022-11-24T05:49:16.897Z,13.82
2022-11-24T05:50:21.781Z,17.05
2022-11-24T05:51:24.317Z,15.27
2022-11-24T05:52:26.986Z,16.58
2022-11-24T05:53:29.533Z,15.95
2022-11-24T05:54:32.405Z,13.27
2022-11-24T05:55:36.217Z,11.65
2022-11-24T05:56:38.802Z,14.20
2022-11-24T05:57:41.918Z,14.32
2022-11-24T05:58:44.504Z,12.80
2022-11-24T05:59:47.026Z,12.80
2022-11-24T06:00:49.597Z,13.95
2022-11-24T06:01:52.289Z,13.57
2022-11-24T06:02:55.019Z,12.32
2022-11-24T06:03:57.645Z,13.20
2022-11-24T06:05:00.212Z,13.23
2022-11-24T06:06:03.298Z,16.33
2022-11-24T06:07:09.259Z,16.90
2022-11-24T06:08:11.939Z,15.70
2022-11-24T06:09:14.727Z,13.75
2022-11-24T06:10:18.402Z,17.33
2022-11-24T06:11:21.126Z,16.60
2022-11-24T06:12:23.748Z,16.27
2022-11-24T06:13:26.335Z,13.30
2022-11-24T06:14:29.070Z,13.27
2022-11-24T06:15:31.648Z,15.82
2022-11-24T06:16:34.303Z,13.80
2022-11-24T06:17:37.076Z,14.30
2022-11-24T06:18:39.908Z,15.10
2022-11-24T06:19:45.539Z,14.07
2022-11-24T06:21:09.184Z,19.10
2022-11-24T06:22:10.591Z,16.08
2022-11-24T06:23:13.231Z,18.13
2022-11-24T06:24:15.806Z,16.98
2022-11-24T06:25:18.403Z,18.63
2022-11-24T06:26:21.411Z,23.83
2022-11-24T06:27:24.433Z,26.20
2022-11-24T06:28:27.838Z,21.80
2022-11-24T06:29:30.337Z,24.60
2022-11-24T06:30:33.081Z,21.38
2022-11-24T06:31:36.046Z,24.65
2022-11-24T06:32:41.644Z,26.40
2022-11-24T06:33:46.948Z,21.92
2022-11-24T06:34:49.498Z,22.00
2022-11-24T06:35:51.988Z,22.50
2022-11-24T06:36:54.617Z,21.88
2022-11-24T06:37:57.141Z,21.90
2022-11-24T06:39:02.608Z,19.80
2022-11-24T06:40:08.850Z,20.67
2022-11-24T06:41:16.010Z,21.83
2022-11-24T06:42:19.126Z,27.75
2022-11-24T06:43:23.278Z,25.40
2022-11-24T06:44:25.940Z,23.38
2022-11-24T06:45:28.635Z,28.08
2022-11-24T06:46:32.245Z,23.77
2022-11-24T06:47:35.756Z,22.63
2022-11-24T06:48:38.980Z,27.67
2022-11-24T06:49:41.487Z,26.73
2022-11-24T06:50:44.140Z,22.35
2022-11-24T06:51:46.918Z,22.83
2022-11-24T06:52:49.423Z,29.23
2022-11-24T06:53:52.032Z,26.35
2022-11-24T06:54:54.571Z,22.00
2022-11-24T06:56:00.767Z,26.67
2022-11-24T06:57:03.332Z,23.20
2022-11-24T06:58:05.893Z,23.17
2022-11-24T06:59:16.202Z,24.90
2022-11-24T07:00:19.272Z,22.38
2022-11-24T07:01:25.867Z,20.13
2022-11-24T07:02:28.658Z,25.42
2022-11-24T07:03:31.632Z,22.05
2022-11-24T07:04:34.567Z,20.52
2022-11-24T07:05:38.285Z,24.48
2022-11-24T07:06:41.531Z,24.50
2022-11-24T07:07:44.457Z,25.92
2022-11-24T07:08:48.077Z,26.30
2022-11-24T07:09:50.572Z,25.35
2022-11-24T07:10:53.198Z,27.95
2022-11-24T07:11:56.629Z,25.88
2022-11-24T07:12:59.132Z,28.25
2022-11-24T07:14:02.471Z,30.00
2022-11-24T07:15:05.918Z,29.33
2022-11-24T07:16:24.522Z,28.38
2022-11-24T07:17:27.174Z,28.58
2022-11-24T07:18:29.670Z,29.45
2022-11-24T07:19:32.175Z,31.65
2022-11-24T07:20:34.753Z,29.90
2022-11-24T07:21:37.294Z,25.38
2022-11-24T07:22:39.838Z,25.65
2022-11-24T07:23:42.632Z,27.65
2022-11-24T07:24:45.117Z,26.48
2022-11-24T07:25:47.735Z,28.88
2022-11-24T07:26:50.336Z,24.75
2022-11-24T07:27:57.880Z,30.55
2022-11-24T07:29:00.726Z,25.17
2022-11-24T07:30:04.397Z,26.75
2022-11-24T07:31:10.849Z,29.08
2022-11-24T07:32:13.391Z,31.00
2022-11-24T07:33:19.107Z,22.38
2022-11-24T07:34:21.685Z,24.42
2022-11-24T07:35:24.224Z,22.17
2022-11-24T07:36:26.864Z,24.90
2022-11-24T07:37:31.657Z,20.58
2022-11-24T07:38:35.262Z,20.85
2022-11-24T07:39:37.995Z,17.42
2022-11-24T07:40:40.509Z,21.38
2022-11-24T07:41:43.056Z,21.60
2022-11-24T07:42:45.671Z,22.13
2022-11-24T07:43:48.891Z,21.38
2022-11-24T07:45:17.908Z,19.65
2022-11-24T07:46:21.059Z,23.75
2022-11-24T07:47:23.767Z,20.88
2022-11-24T07:48:26.611Z,18.70
2022-11-24T07:49:29.227Z,22.80
2022-11-24T07:50:31.830Z,18.52
2022-11-24T07:51:34.393Z,18.63
2022-11-24T07:52:37.912Z,19.38
2022-11-24T07:53:40.729Z,17.75
2022-11-24T07:54:43.579Z,23.45
2022-11-24T07:55:55.628Z,23.90
2022-11-24T07:56:58.170Z,21.65
2022-11-24T07:58:01.797Z,19.65
2022-11-24T07:59:04.560Z,15.75
2022-11-24T08:00:08.293Z,17.70
2022-11-24T08:01:16.752Z,18.42
2022-11-24T08:02:19.670Z,19.45
2022-11-24T08:03:22.712Z,21.40
2022-11-24T08:04:25.319Z,20.15
2022-11-24T08:05:27.828Z,18.08
2022-11-24T08:06:38.620Z,18.95
2022-11-24T08:07:42.149Z,19.05
2022-11-24T08:08:45.649Z,21.77
2022-11-24T08:09:50.405Z,31.52
2022-11-24T08:10:53.402Z,27.98
2022-11-24T08:11:56.064Z,23.38
2022-11-24T08:13:02.070Z,25.48
2022-11-24T08:14:04.641Z,23.60
2022-11-24T08:15:11.123Z,25.33
2022-11-24T08:16:17.545Z,25.35
2022-11-24T08:17:20.505Z,23.77
2022-11-24T08:18:24.602Z,25.83
2022-11-24T08:19:27.270Z,22.67
2022-11-24T08:20:29.787Z,21.75
2022-11-24T08:21:32.642Z,25.98
2022-11-24T08:22:35.267Z,26.92
2022-11-24T08:23:37.807Z,21.90
2022-11-24T08:24:46.275Z,26.88
2022-11-24T08:25:51.743Z,21.67
2022-11-24T08:26:58.259Z,23.42
2022-11-24T08:28:02.594Z,24.27
2022-11-24T08:29:05.103Z,20.48
2022-11-24T08:30:09.089Z,20.38
2022-11-24T08:31:16.625Z,17.42
2022-11-24T08:32:22.441Z,15.55
2022-11-24T08:33:25.160Z,16.63
2022-11-24T08:34:27.816Z,18.80
2022-11-24T08:35:30.593Z,17.05
2022-11-24T08:36:34.454Z,17.17
2022-11-24T08:37:37.044Z,15.55
2022-11-24T08:38:40.523Z,16.23
2022-11-24T08:39:43.082Z,16.45
2022-11-24T08:40:45.612Z,14.30
2022-11-24T08:41:48.145Z,14.20
2022-11-24T08:42:50.677Z,15.15
2022-11-24T08:43:54.539Z,17.73
2022-11-24T08:44:59.206Z,15.35
2022-11-24T08:46:07.999Z,14.32
2022-11-24T08:47:10.593Z,13.75
2022-11-24T08:48:13.314Z,12.95
2022-11-24T08:49:16.304Z,15.45
2022-11-24T08:50:18.848Z,14.55
2022-11-24T08:51:25.082Z,12.63
2022-11-24T08:52:27.674Z,16.00
2022-11-24T08:53:30.252Z,14.25
2022-11-24T08:54:33.225Z,13.13
2022-11-24T08:55:36.015Z,20.02
2022-11-24T08:56:38.517Z,15.05
2022-11-24T08:57:41.352Z,15.30
2022-11-24T08:58:43.920Z,15.18
2022-11-24T08:59:46.524Z,14.40
2022-11-24T09:00:49.205Z,16.33
2022-11-24T09:01:51.743Z,20.00
2022-11-24T09:02:56.393Z,16.67
2022-11-24T09:03:59.069Z,13.85
2022-11-24T09:05:01.837Z,15.32
2022-11-24T09:06:06.017Z,14.93
2022-11-24T09:07:09.394Z,14.68
2022-11-24T09:08:11.948Z,13.40
2022-11-24T09:09:14.731Z,15.27
2022-11-24T09:10:17.569Z,16.85
2022-11-24T09:11:21.469Z,15.52
2022-11-24T09:12:23.979Z,16.42
2022-11-24T09:13:26.586Z,16.95
2022-11-24T09:14:29.337Z,19.42
2022-11-24T09:15:32.019Z,20.17
2022-11-24T09:16:34.726Z,19.48
2022-11-24T09:17:37.728Z,20.52
2022-11-24T09:18:40.977Z,20.70
2022-11-24T09:19:43.708Z,20.02
2022-11-24T09:20:46.208Z,16.27
2022-11-24T09:21:49.172Z,15.43
2022-11-24T09:22:51.724Z,17.48
2022-11-24T09:23:55.617Z,15.07
2022-11-24T09:24:58.308Z,15.20
2022-11-24T09:26:14.386Z,17.27
2022-11-24T09:27:16.931Z,16.02
2022-11-24T09:28:19.491Z,20.90
2022-11-24T09:29:22.101Z,16.27
2022-11-24T09:30:24.617Z,17.02
2022-11-24T09:31:31.458Z,19.30
2022-11-24T09:32:34.011Z,18.42
2022-11-24T09:33:37.885Z,16.35
2022-11-24T09:34:40.622Z,14.45
2022-11-24T09:35:43.122Z,19.10
2022-11-24T09:36:45.635Z,22.40
2022-11-24T09:37:49.117Z,19.77
2022-11-24T09:38:52.022Z,22.48
2022-11-24T09:39:54.746Z,22.48
2022-11-24T09:41:24.713Z,24.33
2022-11-24T09:42:27.175Z,21.83
2022-11-24T09:43:54.322Z,28.00
2022-11-24T09:45:15.105Z,24.58
2022-11-24T09:46:28.093Z,22.48
2022-11-24T09:47:43.928Z,23.48
2022-11-24T09:48:53.582Z,24.33
2022-11-24T09:50:03.743Z,24.10
2022-11-24T09:51:13.084Z,23.10
2022-11-24T09:52:22.135Z,20.23
2022-11-24T09:53:41.563Z,32.58
2022-11-24T09:54:54.579Z,20.17
2022-11-24T09:56:03.799Z,19.17
2022-11-24T09:57:11.659Z,18.23
2022-11-24T09:58:42.592Z,20.33
2022-11-24T09:59:45.237Z,19.33
2022-11-24T10:00:50.777Z,18.15
2022-11-24T10:01:55.847Z,17.58
2022-11-24T10:02:59.229Z,17.15
2022-11-24T10:04:06.262Z,18.42
2022-11-24T10:05:12.412Z,16.05
2022-11-24T10:06:47.359Z,17.08
2022-11-24T10:08:22.729Z,15.57
2022-11-24T10:09:46.831Z,22.33
2022-11-24T10:10:59.609Z,17.73
2022-11-24T10:12:33.273Z,20.42
2022-11-24T10:14:18.201Z,17.90
2022-11-24T10:15:47.425Z,18.90
2022-11-24T10:17:40.327Z,17.85
2022-11-24T10:19:36.988Z,17.98
2022-11-24T10:21:33.588Z,16.15
2022-11-24T10:22:49.713Z,21.08
2022-11-24T10:24:16.843Z,18.42
2022-11-24T10:25:25.967Z,16.42
2022-11-24T10:26:40.702Z,24.70
2022-11-24T10:28:13.386Z,18.02
2022-11-24T10:29:26.817Z,19.10
2022-11-24T10:30:30.369Z,17.25
2022-11-24T10:31:37.203Z,19.30
2022-11-24T10:33:06.104Z,17.38
2022-11-24T10:34:18.481Z,15.68
2022-11-24T10:35:28.394Z,14.93
2022-11-24T10:36:52.512Z,15.07
2022-11-24T10:38:03.046Z,15.32
2022-11-24T10:39:23.631Z,16.23
2022-11-24T10:40:57.718Z,15.30
2022-11-24T10:42:17.567Z,14.85
2022-11-24T10:43:20.101Z,14.00
2022-11-24T10:44:22.799Z,13.18
2022-11-24T10:45:27.753Z,12.57
2022-11-24T10:46:34.861Z,13.00
2022-11-24T10:47:42.348Z,12.85
2022-11-24T10:49:00.687Z,12.15
2022-11-24T10:50:12.658Z,13.32
2022-11-24T10:51:47.682Z,12.75
2022-11-24T10:53:32.256Z,15.50
2022-11-24T10:54:36.151Z,18.50
2022-11-24T10:55:57.351Z,16.98
2022-11-24T10:56:59.926Z,15.95
2022-11-24T10:58:17.384Z,17.08
2022-11-24T10:59:36.758Z,14.80
2022-11-24T11:00:39.775Z,15.65
2022-11-24T11:01:42.359Z,18.88
2022-11-24T11:02:46.484Z,16.25
2022-11-24T11:03:55.114Z,19.30
2022-11-24T11:04:57.978Z,20.67
2022-11-24T11:06:11.212Z,22.67
2022-11-24T11:07:23.806Z,19.00
2022-11-24T11:08:35.148Z,25.33
2022-11-24T11:09:38.394Z,19.38
2022-11-24T11:10:43.132Z,21.05
2022-11-24T11:11:49.494Z,20.73
2022-11-24T11:12:52.014Z,26.27
2022-11-24T11:14:03.816Z,20.35
2022-11-24T11:15:31.446Z,20.83
2022-11-24T11:16:39.959Z,23.52
2022-11-24T11:17:44.451Z,21.40
2022-11-24T11:18:49.526Z,21.63
2022-11-24T11:19:58.421Z,21.77
2022-11-24T11:21:05.716Z,26.80
2022-11-24T11:22:30.640Z,24.27
2022-11-24T11:23:35.685Z,21.15
2022-11-24T11:24:40.327Z,22.92
2022-11-24T11:25:43.920Z,21.30
2022-11-24T11:26:46.471Z,22.40
2022-11-24T11:27:50.051Z,21.58
2022-11-24T11:34:56.442Z,19.02
2022-11-24T11:36:11.106Z,16.90
2022-11-24T11:37:15.750Z,15.40
2022-11-24T11:38:19.044Z,15.20
2022-11-24T11:39:32.460Z,15.07
2022-11-24T11:40:35.458Z,14.00
2022-11-24T11:41:43.848Z,14.38
2022-11-24T11:43:03.316Z,14.35
2022-11-24T11:44:30.089Z,13.70
2022-11-24T11:45:37.688Z,15.13
2022-11-24T11:46:41.793Z,13.57
2022-11-24T11:47:53.931Z,13.50
2022-11-24T11:48:56.532Z,12.85
2022-11-24T11:49:59.902Z,13.07
2022-11-24T11:51:26.276Z,11.82
2022-11-24T11:53:20.903Z,10.70
2022-11-24T11:55:00.836Z,11.93
2022-11-24T11:56:23.850Z,12.95
2022-11-24T11:57:44.846Z,12.48
2022-11-24T11:58:58.711Z,14.90
2022-11-24T12:00:28.499Z,10.38
2022-11-24T12:02:04.581Z,13.35
2022-11-24T12:03:47.519Z,11.85
2022-11-24T12:05:01.476Z,17.40
2022-11-24T12:06:40.759Z,17.50
2022-11-24T12:08:24.733Z,16.15
2022-11-24T12:10:22.394Z,14.88
2022-11-24T12:11:40.269Z,16.83
2022-11-24T12:13:42.286Z,15.85
2022-11-24T12:15:10.269Z,18.15
2022-11-24T12:16:27.827Z,14.02
2022-11-24T12:17:51.880Z,15.32
2022-11-24T12:19:08.206Z,15.75
2022-11-24T12:20:16.341Z,14.73
2022-11-24T12:21:44.981Z,14.45
2022-11-24T12:23:17.904Z,15.75
2022-11-24T12:24:59.181Z,13.23
2022-11-24T12:26:40.596Z,13.88
2022-11-24T12:28:03.060Z,14.05
2022-11-24T12:30:01.088Z,13.10
2022-11-24T12:31:12.570Z,19.13
2022-11-24T12:33:08.988Z,15.57
2022-11-24T12:35:12.094Z,12.85
2022-11-24T12:36:49.990Z,14.95
2022-11-24T12:38:10.304Z,14.13
2022-11-24T12:39:34.877Z,22.77
2022-11-24T12:41:41.645Z,22.42
2022-11-24T12:43:11.896Z,20.85
2022-11-24T12:44:52.503Z,19.45
2022-11-24T12:46:21.430Z,20.38
2022-11-24T12:47:42.106Z,16.38
2022-11-24T12:49:30.233Z,18.10
2022-11-24T12:50:38.886Z,16.95
2022-11-24T12:52:21.238Z,16.38
2022-11-24T12:53:28.755Z,14.60
2022-11-24T12:54:40.297Z,15.60
2022-11-24T12:55:44.238Z,15.88
2022-11-24T12:57:04.578Z,15.55
2022-11-24T12:58:25.705Z,14.07
2022-11-24T13:00:03.584Z,13.43
2022-11-24T13:01:21.850Z,15.40
2022-11-24T13:03:04.307Z,13.35
2022-11-24T13:04:15.615Z,13.68
2022-11-24T13:05:42.118Z,11.38
2022-11-24T13:06:52.576Z,11.57
2022-11-24T13:08:02.967Z,11.30
2022-11-24T13:09:10.307Z,11.23
2022-11-24T13:11:52.257Z,12.38
2022-11-24T13:13:00.087Z,12.30
2022-11-24T13:14:13.237Z,10.68
2022-11-24T13:15:43.272Z,9.25
2022-11-24T13:17:28.209Z,10.50
2022-11-24T13:19:06.752Z,11.68
2022-11-24T13:20:26.782Z,9.95
2022-11-24T13:21:32.709Z,10.07
2022-11-24T13:22:35.749Z,11.07
2022-11-24T13:24:37.782Z,9.65
2022-11-24T13:25:40.822Z,8.95
2022-11-24T13:26:43.231Z,8.65
2022-11-24T13:27:49.054Z,8.30
2022-11-24T13:29:18.026Z,8.60
2022-11-24T13:30:35.688Z,8.60
2022-11-24T13:31:38.264Z,12.70
2022-11-24T13:32:40.784Z,9.15
2022-11-24T13:33:43.877Z,10.30
2022-11-24T13:34:55.476Z,10.00
2022-11-24T13:36:04.334Z,8.43
2022-11-24T13:37:40.766Z,12.60
2022-11-24T13:38:46.263Z,11.35
2022-11-24T13:39:54.165Z,10.02
2022-11-24T13:41:13.506Z,12.70
2022-11-24T13:42:42.579Z,10.57
2022-11-24T13:44:16.242Z,11.40
2022-11-24T13:45:40.779Z,13.77
2022-11-24T13:47:05.764Z,12.10
2022-11-24T13:48:22.759Z,9.88
2022-11-24T13:49:41.549Z,11.93
2022-11-24T13:50:49.566Z,11.82
2022-11-24T13:52:35.660Z,10.18
2022-11-24T13:53:40.887Z,9.32
2022-11-24T13:54:43.726Z,9.20
2022-11-24T13:56:11.835Z,8.88
2022-11-24T13:57:39.206Z,7.97
2022-11-24T13:58:55.899Z,10.07
2022-11-24T14:00:02.523Z,9.05
2022-11-24T14:01:11.060Z,8.00
2022-11-24T14:02:23.369Z,7.18
2022-11-24T14:04:21.476Z,7.00
2022-11-24T14:05:20.589Z,6.60
2022-11-24T14:06:36.630Z,7.25
2022-11-24T14:07:43.186Z,6.25
2022-11-24T14:09:28.847Z,6.68
2022-11-24T14:10:36.550Z,6.60
2022-11-24T14:11:40.673Z,5.40
2022-11-24T14:12:43.984Z,5.45
2022-11-24T14:13:46.723Z,5.93
2022-11-24T14:14:52.520Z,6.35
2022-11-24T14:16:09.986Z,5.68
2022-11-24T14:17:25.068Z,5.28
2022-11-24T14:18:31.531Z,4.70
2022-11-24T14:19:34.087Z,6.10
2022-11-24T14:20:36.763Z,4.95
2022-11-24T14:21:44.429Z,6.15
2022-11-24T14:22:46.986Z,5.25
2022-11-24T14:24:23.432Z,5.95
2022-11-24T14:25:31.783Z,5.30
2022-11-24T14:26:41.402Z,6.90
2022-11-24T14:27:44.001Z,5.78
2022-11-24T14:28:46.912Z,6.90
2022-11-24T14:30:15.550Z,5.30
2022-11-24T14:31:26.385Z,10.25
2022-11-24T14:32:29.839Z,13.80
2022-11-24T14:33:32.401Z,12.30
2022-11-24T14:35:26.902Z,12.43
2022-11-24T14:36:29.532Z,12.05
2022-11-24T14:37:32.080Z,14.23
2022-11-24T14:38:34.853Z,15.07
2022-11-24T14:39:43.495Z,13.20
2022-11-24T14:40:51.560Z,17.25
2022-11-24T14:42:17.051Z,21.58
2022-11-24T14:43:31.618Z,23.63
2022-11-24T14:44:52.827Z,21.60
2022-11-24T14:46:00.010Z,23.65
2022-11-24T14:47:06.083Z,20.10
2022-11-24T14:48:16.950Z,19.55
2022-11-24T14:49:23.388Z,28.05
2022-11-24T14:50:26.234Z,24.15
2022-11-24T14:51:33.144Z,20.48
2022-11-24T14:52:36.121Z,18.63
2022-11-24T14:53:44.089Z,22.60
2022-11-24T14:54:55.545Z,24.45
2022-11-24T14:56:25.971Z,28.23
2022-11-24T14:57:34.997Z,25.35
2022-11-24T14:58:42.024Z,27.95